Time;durP1;ratioP1;P1;durP2;ratioP2;P2;SDS_P1;SDS_P2;PMS_P1;PMS_P2;Temp;Humidity;BMP_temperature;BMP_pressure;BME280_temperature;BME280_humidity;BME280_pressure;Samples;Min_cycle;Max_cycle;Signal;HPM_P1;HPM_P2
2022/12/17 13:06:40;;;;;;;153.07;12.52;;;;;;;;;;8272592;28;20036;-76
2022/12/17 13:10:40;;;;;;;129.02;12.88;;;;;;;;;;8269776;28;20024;-76
2022/12/17 13:14:53;;;;;;;83.15;9.82;;;;;;;;;;8271726;28;20022;-78
2022/12/17 13:19:00;;;;;;;146.20;11.55;;;;;;;;;;8267396;28;20065;-76
2022/12/17 13:23:14;;;;;;;108.15;11.02;;;;;;;;;;8266668;28;20034;-77
2022/12/17 13:27:33;;;;;;;70.53;9.18;;;;;;;;;;8283344;28;20100;-77
2022/12/17 13:31:42;;;;;;;248.25;15.65;;;;;;;;;;8268047;28;20721;-76
2022/12/17 13:36:02;;;;;;;241.65;16.65;;;;;;;;;;8268129;28;21007;-77
2022/12/17 13:40:02;;;;;;;68.40;10.07;;;;;;;;;;8269148;28;20022;-76
2022/12/17 13:44:23;;;;;;;34.47;9.23;;;;;;;;;;8269537;28;20038;-77
2022/12/17 13:48:24;;;;;;;94.00;11.07;;;;;;;;;;8265783;28;20042;-77
2022/12/17 13:52:25;;;;;;;304.75;18.65;;;;;;;;;;8269495;28;20410;-77
2022/12/17 13:56:27;;;;;;;155.50;15.85;;;;;;;;;;8270138;28;20025;-76
2022/12/17 14:00:29;;;;;;;561.97;26.45;;;;;;;;;;8270742;28;20781;-78
2022/12/17 14:04:31;;;;;;;37.50;11.98;;;;;;;;;;8269213;28;20151;-77
2022/12/17 14:08:31;;;;;;;189.90;18.80;;;;;;;;;;8267438;28;20171;-77
2022/12/17 14:12:34;;;;;;;150.07;16.88;;;;;;;;;;8266818;28;20080;-77
2022/12/17 14:16:34;;;;;;;73.18;13.60;;;;;;;;;;8267527;28;20037;-75
2022/12/17 14:20:35;;;;;;;118.37;14.27;;;;;;;;;;8266890;28;20028;-74
2022/12/17 14:24:37;;;;;;;53.08;13.10;;;;;;;;;;8266259;28;20284;-76
2022/12/17 14:28:45;;;;;;;207.07;16.10;;;;;;;;;;8268342;28;20357;-77
2022/12/17 14:32:45;;;;;;;165.20;15.75;;;;;;;;;;8268109;28;20037;-77
2022/12/17 14:36:51;;;;;;;107.32;16.55;;;;;;;;;;8266676;28;20029;-76
2022/12/17 14:40:52;;;;;;;342.50;21.30;;;;;;;;;;8268507;28;20062;-76
2022/12/17 14:44:52;;;;;;;324.02;20.92;;;;;;;;;;8267866;28;20021;-76
2022/12/17 14:49:00;;;;;;;151.45;15.82;;;;;;;;;;8266918;28;20593;-75
2022/12/17 14:53:01;;;;;;;41.38;13.57;;;;;;;;;;8271410;28;20044;-76
2022/12/17 14:57:04;;;;;;;52.97;14.18;;;;;;;;;;8267098;28;20583;-76
2022/12/17 15:01:06;;;;;;;249.73;17.27;;;;;;;;;;8266052;28;20969;-77
2022/12/17 15:05:07;;;;;;;57.75;13.23;;;;;;;;;;8264482;28;20125;-76
2022/12/17 15:09:11;;;;;;;123.10;14.55;;;;;;;;;;8274432;28;20025;-76
2022/12/17 15:13:12;;;;;;;171.07;15.38;;;;;;;;;;8266524;28;20064;-77
2022/12/17 15:17:12;;;;;;;138.63;16.48;;;;;;;;;;8266882;28;20030;-76
2022/12/17 15:21:13;;;;;;;599.00;37.17;;;;;;;;;;8266575;28;20137;-77
2022/12/17 15:25:14;;;;;;;168.75;15.85;;;;;;;;;;8268320;28;20038;-76
2022/12/17 15:29:14;;;;;;;141.70;15.63;;;;;;;;;;8265968;28;20026;-76
2022/12/17 15:33:15;;;;;;;210.95;21.23;;;;;;;;;;8264212;28;20076;-76
2022/12/17 15:37:15;;;;;;;232.77;29.58;;;;;;;;;;8266058;28;20052;-77
2022/12/17 15:45:44;;;;;;;65.05;23.00;;;;;;;;;;8191276;28;20781;-75
2022/12/17 15:49:44;;;;;;;94.88;19.98;;;;;;;;;;8233446;28;20029;-75
2022/12/17 15:53:44;;;;;;;119.40;19.27;;;;;;;;;;8222079;28;20049;-75
2022/12/17 15:57:44;;;;;;;183.13;21.45;;;;;;;;;;8226012;28;20075;-75
2022/12/17 16:01:44;;;;;;;124.18;16.90;;;;;;;;;;8238998;28;20048;-77
2022/12/17 16:05:45;;;;;;;148.85;18.45;;;;;;;;;;8235352;28;20041;-76
2022/12/17 16:09:45;;;;;;;266.42;19.55;;;;;;;;;;8235980;28;21912;-76
2022/12/17 16:13:51;;;;;;;86.47;12.43;;;;;;;;;;8233503;28;20030;-76
2022/12/17 16:17:52;;;;;;;262.48;19.40;;;;;;;;;;8232419;28;20132;-76
2022/12/17 16:21:52;;;;;;;133.15;14.18;;;;;;;;;;8242180;28;20052;-76
2022/12/17 16:25:56;;;;;;;31.30;11.03;;;;;;;;;;8254666;28;20144;-75
2022/12/17 16:29:57;;;;;;;137.27;13.15;;;;;;;;;;8236551;28;21428;-75
2022/12/17 16:33:57;;;;;;;165.02;16.17;;;;;;;;;;8234042;28;20080;-75
2022/12/17 16:37:57;;;;;;;91.57;16.10;;;;;;;;;;8233367;28;20264;-75
2022/12/17 16:41:57;;;;;;;71.80;16.40;;;;;;;;;;8265867;28;20039;-75
2022/12/17 16:45:58;;;;;;;283.95;28.30;;;;;;;;;;8274172;28;20090;-75
2022/12/17 16:49:58;;;;;;;151.98;21.90;;;;;;;;;;8274042;28;20553;-75
2022/12/17 16:53:58;;;;;;;51.83;17.35;;;;;;;;;;8272579;28;20089;-75
2022/12/17 16:57:58;;;;;;;36.83;16.35;;;;;;;;;;8274376;28;20621;-75
2022/12/17 17:01:59;;;;;;;37.33;17.42;;;;;;;;;;8271606;28;20033;-75
2022/12/17 17:05:59;;;;;;;38.50;18.45;;;;;;;;;;8273828;28;20049;-75
2022/12/17 17:10:00;;;;;;;39.25;17.70;;;;;;;;;;8273336;28;20034;-75
2022/12/17 17:14:00;;;;;;;31.05;15.20;;;;;;;;;;8273093;28;20038;-75
2022/12/17 17:18:00;;;;;;;27.63;14.18;;;;;;;;;;8271451;28;20037;-75
2022/12/17 17:22:00;;;;;;;23.52;11.82;;;;;;;;;;8273449;28;20045;-75
2022/12/17 17:26:00;;;;;;;18.00;8.80;;;;;;;;;;8272494;28;20033;-76
2022/12/17 17:30:01;;;;;;;24.88;13.95;;;;;;;;;;8273550;28;20041;-76
2022/12/17 17:34:06;;;;;;;26.65;14.45;;;;;;;;;;8271768;28;20061;-76
2022/12/17 17:38:06;;;;;;;25.90;13.85;;;;;;;;;;8279323;28;20303;-76
2022/12/17 17:42:06;;;;;;;26.63;14.48;;;;;;;;;;8270908;28;20120;-76
2022/12/17 17:46:08;;;;;;;24.67;12.75;;;;;;;;;;8270625;28;20127;-76
2022/12/17 17:50:08;;;;;;;29.50;13.13;;;;;;;;;;8272744;28;20136;-74
2022/12/17 17:54:09;;;;;;;28.55;14.20;;;;;;;;;;8271659;28;20106;-74
2022/12/17 17:58:09;;;;;;;23.33;12.95;;;;;;;;;;8271006;28;20057;-74
2022/12/17 18:02:10;;;;;;;24.47;13.23;;;;;;;;;;8271042;28;20041;-74
2022/12/17 18:06:12;;;;;;;31.40;15.10;;;;;;;;;;8269564;28;20272;-75
2022/12/17 18:10:12;;;;;;;30.75;13.73;;;;;;;;;;8273059;28;20037;-75
2022/12/17 18:14:12;;;;;;;26.55;13.00;;;;;;;;;;8270761;28;21060;-75
2022/12/17 18:18:12;;;;;;;31.58;15.23;;;;;;;;;;8278680;28;20380;-75
2022/12/17 18:22:13;;;;;;;36.70;17.00;;;;;;;;;;8273685;28;20092;-76
2022/12/17 18:26:18;;;;;;;26.88;14.02;;;;;;;;;;8272299;28;20025;-77
2022/12/17 18:30:19;;;;;;;18.05;10.10;;;;;;;;;;8272346;28;20033;-76
2022/12/17 18:34:21;;;;;;;19.35;9.88;;;;;;;;;;8270953;28;20112;-74
2022/12/17 18:38:21;;;;;;;18.83;9.70;;;;;;;;;;8271281;28;20099;-75
2022/12/17 18:46:41;;;;;;;31.15;15.88;;;;;;;;;;8272342;28;20060;-76
2022/12/17 18:50:42;;;;;;;32.42;15.38;;;;;;;;;;8271302;28;20565;-75
2022/12/17 18:54:42;;;;;;;25.73;13.30;;;;;;;;;;8270207;28;20028;-77
2022/12/17 18:58:43;;;;;;;25.48;13.05;;;;;;;;;;8271695;28;20701;-76
2022/12/17 19:02:43;;;;;;;67.60;11.65;;;;;;;;;;8270369;28;20718;-77
2022/12/17 19:06:44;;;;;;;25.35;10.98;;;;;;;;;;8269817;28;20029;-76
2022/12/17 19:10:44;;;;;;;152.68;13.05;;;;;;;;;;8269547;28;20752;-76
2022/12/17 19:14:44;;;;;;;242.48;16.02;;;;;;;;;;8268483;28;20033;-76
2022/12/17 19:18:49;;;;;;;72.00;9.40;;;;;;;;;;8269747;28;20040;-76
2022/12/17 19:22:50;;;;;;;23.75;7.55;;;;;;;;;;8270425;28;20041;-76
2022/12/17 19:26:50;;;;;;;34.58;8.48;;;;;;;;;;8266627;28;20763;-76
2022/12/17 19:30:54;;;;;;;17.63;7.90;;;;;;;;;;8265929;28;20852;-75
2022/12/17 19:34:54;;;;;;;13.98;7.97;;;;;;;;;;8265533;28;20030;-75
2022/12/17 19:38:56;;;;;;;17.42;8.38;;;;;;;;;;8262633;28;20493;-75
2022/12/17 19:42:56;;;;;;;15.70;8.68;;;;;;;;;;8265586;28;20060;-76
2022/12/17 19:46:57;;;;;;;20.95;9.88;;;;;;;;;;8265904;28;20616;-77
2022/12/17 19:50:57;;;;;;;23.20;11.43;;;;;;;;;;8283047;28;20264;-77
2022/12/17 19:54:57;;;;;;;21.58;9.85;;;;;;;;;;8271801;28;20789;-77
2022/12/17 19:59:00;;;;;;;20.27;9.68;;;;;;;;;;8267186;28;20038;-77
2022/12/17 20:03:01;;;;;;;19.27;9.88;;;;;;;;;;8267637;28;20081;-77
2022/12/17 20:07:01;;;;;;;16.00;8.52;;;;;;;;;;8268630;28;20038;-77
2022/12/17 20:11:03;;;;;;;17.50;7.60;;;;;;;;;;8267665;28;20119;-78
2022/12/17 20:15:03;;;;;;;13.32;7.03;;;;;;;;;;8267016;28;20267;-77
2022/12/17 20:19:04;;;;;;;32.33;12.13;;;;;;;;;;8272390;28;20029;-78
2022/12/17 20:23:05;;;;;;;44.95;15.25;;;;;;;;;;8281068;28;20030;-78
2022/12/17 20:27:05;;;;;;;19.63;10.40;;;;;;;;;;8274846;28;20029;-78
2022/12/17 20:31:05;;;;;;;25.90;13.68;;;;;;;;;;8273727;28;20296;-78
2022/12/17 20:35:06;;;;;;;19.05;10.90;;;;;;;;;;8274290;28;20084;-78
2022/12/17 20:39:06;;;;;;;20.73;10.18;;;;;;;;;;8273488;28;20021;-77
2022/12/17 20:43:07;;;;;;;16.20;9.35;;;;;;;;;;8273228;28;20029;-77
2022/12/17 20:47:07;;;;;;;23.00;10.40;;;;;;;;;;8271379;28;20396;-78
2022/12/17 20:51:08;;;;;;;18.63;9.73;;;;;;;;;;8272131;28;20029;-77
2022/12/17 20:55:08;;;;;;;27.17;11.55;;;;;;;;;;8275144;28;20061;-76
2022/12/17 20:59:12;;;;;;;21.02;11.07;;;;;;;;;;8272852;28;20037;-76
2022/12/17 21:03:12;;;;;;;23.45;10.82;;;;;;;;;;8271901;28;20042;-76
2022/12/17 21:07:13;;;;;;;21.27;10.75;;;;;;;;;;8275247;28;20026;-76
2022/12/17 21:11:14;;;;;;;20.05;10.20;;;;;;;;;;8275605;28;20030;-76
2022/12/17 21:15:14;;;;;;;23.58;10.48;;;;;;;;;;8272950;28;20029;-77
2022/12/17 21:19:16;;;;;;;27.38;11.55;;;;;;;;;;8275307;28;20033;-76
2022/12/17 21:23:16;;;;;;;26.63;11.35;;;;;;;;;;8274621;28;20152;-76
2022/12/17 21:27:16;;;;;;;25.20;11.38;;;;;;;;;;8274699;28;20107;-76
2022/12/17 21:31:20;;;;;;;22.58;9.40;;;;;;;;;;8275126;28;20037;-76
2022/12/17 21:35:21;;;;;;;18.45;9.68;;;;;;;;;;8276607;28;20034;-77
2022/12/17 21:39:21;;;;;;;25.73;11.40;;;;;;;;;;8276531;28;20057;-76
2022/12/17 21:43:21;;;;;;;24.02;11.75;;;;;;;;;;8274408;28;20295;-76
2022/12/17 21:47:22;;;;;;;21.55;10.95;;;;;;;;;;8280069;28;20044;-76
2022/12/17 21:51:23;;;;;;;22.33;11.77;;;;;;;;;;8273263;28;20467;-76
2022/12/17 21:55:24;;;;;;;22.50;10.43;;;;;;;;;;8272099;28;20080;-76
2022/12/17 21:59:25;;;;;;;24.58;10.60;;;;;;;;;;8272602;28;20080;-77
2022/12/17 22:03:25;;;;;;;20.92;9.90;;;;;;;;;;8281262;28;20043;-77
2022/12/17 22:07:25;;;;;;;26.08;11.00;;;;;;;;;;8272797;28;20048;-76
2022/12/17 22:11:26;;;;;;;29.40;11.45;;;;;;;;;;8272610;28;20034;-76
2022/12/17 22:15:26;;;;;;;23.90;11.77;;;;;;;;;;8272677;28;20383;-76
2022/12/17 22:19:26;;;;;;;23.10;10.63;;;;;;;;;;8272651;28;20110;-76
2022/12/17 22:23:26;;;;;;;23.35;10.70;;;;;;;;;;8274524;28;20025;-77
2022/12/17 22:27:27;;;;;;;25.83;10.10;;;;;;;;;;8271183;28;20032;-76
2022/12/17 22:35:46;;;;;;;52.95;11.77;;;;;;;;;;8272736;28;20076;-76
2022/12/17 22:39:46;;;;;;;61.85;12.55;;;;;;;;;;8272639;28;20026;-76
2022/12/17 22:43:46;;;;;;;23.23;11.18;;;;;;;;;;8272994;28;20033;-76
2022/12/17 22:47:47;;;;;;;29.02;10.07;;;;;;;;;;8271144;28;20081;-76
2022/12/17 22:51:47;;;;;;;27.65;10.68;;;;;;;;;;8277754;28;20869;-77
2022/12/17 22:55:47;;;;;;;22.13;10.30;;;;;;;;;;8271925;28;20049;-76
2022/12/17 22:59:48;;;;;;;24.35;11.40;;;;;;;;;;8273942;28;20025;-76
2022/12/17 23:03:48;;;;;;;50.53;12.88;;;;;;;;;;8268978;28;20041;-77
2022/12/17 23:07:49;;;;;;;21.25;10.57;;;;;;;;;;8270920;28;20694;-76
2022/12/17 23:11:49;;;;;;;33.10;13.05;;;;;;;;;;8269925;28;20209;-76
2022/12/17 23:15:49;;;;;;;50.95;12.98;;;;;;;;;;8271004;28;20026;-76
2022/12/17 23:19:50;;;;;;;25.58;12.52;;;;;;;;;;8273862;28;20018;-76
2022/12/17 23:23:51;;;;;;;39.20;11.80;;;;;;;;;;8270307;28;20079;-76
2022/12/17 23:27:51;;;;;;;28.73;11.48;;;;;;;;;;8273374;28;20030;-76
2022/12/17 23:31:51;;;;;;;71.30;13.65;;;;;;;;;;8270913;28;20172;-77
2022/12/17 23:36:00;;;;;;;36.78;12.43;;;;;;;;;;8278987;28;20029;-76
2022/12/17 23:40:00;;;;;;;29.08;13.73;;;;;;;;;;8269291;28;20075;-76
2022/12/17 23:44:01;;;;;;;23.67;11.02;;;;;;;;;;8271338;28;20103;-76
2022/12/17 23:48:01;;;;;;;36.45;13.13;;;;;;;;;;8269757;28;20095;-76
2022/12/17 23:52:01;;;;;;;27.73;11.18;;;;;;;;;;8269584;28;20030;-77
2022/12/17 23:56:05;;;;;;;72.72;13.95;;;;;;;;;;8270249;28;20022;-76
